<?xml version="1.0" encoding="UTF-8" standalone="no" ?>
<gpx xmlns="http://www.topografix.com/GPX/1/1" xmlns:xsi="http://www.w3.org/2001/XMLSchema-instance" xsi:schemaLocation="http://www.topografix.com/GPX/1/1 http://www.topografix.com/GPX/1/1/gpx.xsd" version="1.1" creator="VisuGPX - https://www.visugpx.com">
  <metadata>
    <name>Sagy -- Vigny -- Villette</name>
  </metadata>
  <trk>
    <name><![CDATA[Sagy -- Vigny -- Vilette]]></name>
    <trkseg>
      <trkpt lat="49.04962" lon="1.95227">
        <ele>51.6</ele>
        <time>2021-11-12T19:11:05+01:00</time>
      </trkpt>
      <trkpt lat="49.0525" lon="1.95248">
        <ele>60</ele>
        <time>2021-11-12T19:11:10+01:00</time>
      </trkpt>
      <trkpt lat="49.05362" lon="1.95328">
        <ele>61.8</ele>
        <time>2021-11-12T19:11:15+01:00</time>
      </trkpt>
      <trkpt lat="49.05498" lon="1.95535">
        <ele>67.6</ele>
        <time>2021-11-12T19:11:20+01:00</time>
      </trkpt>
      <trkpt lat="49.05601" lon="1.95652">
        <ele>72.5</ele>
        <time>2021-11-12T19:11:25+01:00</time>
      </trkpt>
      <trkpt lat="49.05762" lon="1.95697">
        <ele>79.8</ele>
        <time>2021-11-12T19:11:30+01:00</time>
      </trkpt>
      <trkpt lat="49.058" lon="1.95741">
        <ele>82.4</ele>
        <time>2021-11-12T19:11:35+01:00</time>
      </trkpt>
      <trkpt lat="49.05827" lon="1.95849">
        <ele>87.4</ele>
        <time>2021-11-12T19:11:40+01:00</time>
      </trkpt>
      <trkpt lat="49.0592" lon="1.9593">
        <ele>97.6</ele>
        <time>2021-11-12T19:11:45+01:00</time>
      </trkpt>
      <trkpt lat="49.05954" lon="1.96078">
        <ele>101</ele>
        <time>2021-11-12T19:11:50+01:00</time>
      </trkpt>
      <trkpt lat="49.05984" lon="1.96199">
        <ele>108.3</ele>
        <time>2021-11-12T19:11:55+01:00</time>
      </trkpt>
      <trkpt lat="49.06022" lon="1.96226">
        <ele>111.5</ele>
        <time>2021-11-12T19:12:00+01:00</time>
      </trkpt>
      <trkpt lat="49.06121" lon="1.96188">
        <ele>116.5</ele>
        <time>2021-11-12T19:12:05+01:00</time>
      </trkpt>
      <trkpt lat="49.06092" lon="1.96093">
        <ele>116.3</ele>
        <time>2021-11-12T19:12:10+01:00</time>
      </trkpt>
      <trkpt lat="49.06261" lon="1.95641">
        <ele>122</ele>
        <time>2021-11-12T19:12:15+01:00</time>
      </trkpt>
      <trkpt lat="49.06366" lon="1.95444">
        <ele>123</ele>
        <time>2021-11-12T19:12:20+01:00</time>
      </trkpt>
      <trkpt lat="49.06438" lon="1.9535">
        <ele>122.1</ele>
        <time>2021-11-12T19:12:25+01:00</time>
      </trkpt>
      <trkpt lat="49.06503" lon="1.95192">
        <ele>115.6</ele>
        <time>2021-11-12T19:12:30+01:00</time>
      </trkpt>
      <trkpt lat="49.06564" lon="1.95166">
        <ele>112</ele>
        <time>2021-11-12T19:12:35+01:00</time>
      </trkpt>
      <trkpt lat="49.06641" lon="1.95047">
        <ele>114.1</ele>
        <time>2021-11-12T19:12:40+01:00</time>
      </trkpt>
      <trkpt lat="49.0676" lon="1.94794">
        <ele>117.1</ele>
        <time>2021-11-12T19:12:45+01:00</time>
      </trkpt>
      <trkpt lat="49.06929" lon="1.94577">
        <ele>114.6</ele>
        <time>2021-11-12T19:12:50+01:00</time>
      </trkpt>
      <trkpt lat="49.07011" lon="1.94485">
        <ele>116.6</ele>
        <time>2021-11-12T19:12:55+01:00</time>
      </trkpt>
      <trkpt lat="49.07096" lon="1.94174">
        <ele>122.9</ele>
        <time>2021-11-12T19:13:00+01:00</time>
      </trkpt>
      <trkpt lat="49.07289" lon="1.94057">
        <ele>127</ele>
        <time>2021-11-12T19:13:05+01:00</time>
      </trkpt>
      <trkpt lat="49.07675" lon="1.93772">
        <ele>115.1</ele>
        <time>2021-11-12T19:13:10+01:00</time>
      </trkpt>
      <trkpt lat="49.07673" lon="1.93522">
        <ele>101.8</ele>
        <time>2021-11-12T19:13:15+01:00</time>
      </trkpt>
      <trkpt lat="49.07683" lon="1.93437">
        <ele>98.7</ele>
        <time>2021-11-12T19:13:20+01:00</time>
      </trkpt>
      <trkpt lat="49.07676" lon="1.93372">
        <ele>95</ele>
        <time>2021-11-12T19:13:25+01:00</time>
      </trkpt>
      <trkpt lat="49.07682" lon="1.93221">
        <ele>89</ele>
        <time>2021-11-12T19:13:30+01:00</time>
      </trkpt>
      <trkpt lat="49.07792" lon="1.928">
        <ele>72.3</ele>
        <time>2021-11-12T19:13:35+01:00</time>
      </trkpt>
      <trkpt lat="49.07743" lon="1.92771">
        <ele>69.6</ele>
        <time>2021-11-12T19:13:40+01:00</time>
      </trkpt>
      <trkpt lat="49.07718" lon="1.92742">
        <ele>68.5</ele>
        <time>2021-11-12T19:13:45+01:00</time>
      </trkpt>
      <trkpt lat="49.07785" lon="1.92561">
        <ele>68.7</ele>
        <time>2021-11-12T19:13:50+01:00</time>
      </trkpt>
      <trkpt lat="49.07824" lon="1.92385">
        <ele>72.9</ele>
        <time>2021-11-12T19:13:55+01:00</time>
      </trkpt>
      <trkpt lat="49.07866" lon="1.9211">
        <ele>73.2</ele>
        <time>2021-11-12T19:14:00+01:00</time>
      </trkpt>
      <trkpt lat="49.07634" lon="1.92046">
        <ele>69.2</ele>
        <time>2021-11-12T19:14:05+01:00</time>
      </trkpt>
      <trkpt lat="49.0748" lon="1.91956">
        <ele>76.7</ele>
        <time>2021-11-12T19:14:10+01:00</time>
      </trkpt>
      <trkpt lat="49.07333" lon="1.92563">
        <ele>70</ele>
        <time>2021-11-12T19:14:15+01:00</time>
      </trkpt>
      <trkpt lat="49.07056" lon="1.92905">
        <ele>74</ele>
        <time>2021-11-12T19:14:20+01:00</time>
      </trkpt>
      <trkpt lat="49.06831" lon="1.93136">
        <ele>87.1</ele>
        <time>2021-11-12T19:14:25+01:00</time>
      </trkpt>
      <trkpt lat="49.06711" lon="1.93314">
        <ele>82.1</ele>
        <time>2021-11-12T19:14:30+01:00</time>
      </trkpt>
      <trkpt lat="49.06602" lon="1.93366">
        <ele>71.4</ele>
        <time>2021-11-12T19:14:35+01:00</time>
      </trkpt>
      <trkpt lat="49.06502" lon="1.93402">
        <ele>65.6</ele>
        <time>2021-11-12T19:14:40+01:00</time>
      </trkpt>
      <trkpt lat="49.06458" lon="1.93384">
        <ele>60.3</ele>
        <time>2021-11-12T19:14:45+01:00</time>
      </trkpt>
      <trkpt lat="49.06412" lon="1.93437">
        <ele>58.3</ele>
        <time>2021-11-12T19:14:50+01:00</time>
      </trkpt>
      <trkpt lat="49.06373" lon="1.93431">
        <ele>55.5</ele>
        <time>2021-11-12T19:14:55+01:00</time>
      </trkpt>
      <trkpt lat="49.06329" lon="1.93469">
        <ele>56.8</ele>
        <time>2021-11-12T19:15:00+01:00</time>
      </trkpt>
      <trkpt lat="49.06322" lon="1.935">
        <ele>57</ele>
        <time>2021-11-12T19:15:05+01:00</time>
      </trkpt>
      <trkpt lat="49.06104" lon="1.93437">
        <ele>56.2</ele>
        <time>2021-11-12T19:15:10+01:00</time>
      </trkpt>
      <trkpt lat="49.05955" lon="1.93399">
        <ele>52.3</ele>
        <time>2021-11-12T19:15:15+01:00</time>
      </trkpt>
      <trkpt lat="49.05804" lon="1.93473">
        <ele>51.9</ele>
        <time>2021-11-12T19:15:20+01:00</time>
      </trkpt>
      <trkpt lat="49.05618" lon="1.93666">
        <ele>51</ele>
        <time>2021-11-12T19:15:25+01:00</time>
      </trkpt>
      <trkpt lat="49.05502" lon="1.93877">
        <ele>48.7</ele>
        <time>2021-11-12T19:15:30+01:00</time>
      </trkpt>
      <trkpt lat="49.05427" lon="1.94054">
        <ele>49</ele>
        <time>2021-11-12T19:15:35+01:00</time>
      </trkpt>
      <trkpt lat="49.05382" lon="1.94278">
        <ele>48.5</ele>
        <time>2021-11-12T19:15:40+01:00</time>
      </trkpt>
      <trkpt lat="49.05359" lon="1.94401">
        <ele>48.3</ele>
        <time>2021-11-12T19:15:45+01:00</time>
      </trkpt>
      <trkpt lat="49.05259" lon="1.94594">
        <ele>48.9</ele>
        <time>2021-11-12T19:15:50+01:00</time>
      </trkpt>
      <trkpt lat="49.0522" lon="1.94704">
        <ele>50.2</ele>
        <time>2021-11-12T19:15:55+01:00</time>
      </trkpt>
      <trkpt lat="49.05146" lon="1.9478">
        <ele>47</ele>
        <time>2021-11-12T19:16:00+01:00</time>
      </trkpt>
      <trkpt lat="49.05081" lon="1.94878">
        <ele>45.9</ele>
        <time>2021-11-12T19:16:05+01:00</time>
      </trkpt>
      <trkpt lat="49.05015" lon="1.94792">
        <ele>44.7</ele>
        <time>2021-11-12T19:16:10+01:00</time>
      </trkpt>
      <trkpt lat="49.04954" lon="1.9469">
        <ele>44.5</ele>
        <time>2021-11-12T19:16:15+01:00</time>
      </trkpt>
      <trkpt lat="49.04865" lon="1.94706">
        <ele>44.9</ele>
        <time>2021-11-12T19:16:20+01:00</time>
      </trkpt>
      <trkpt lat="49.048" lon="1.94692">
        <ele>44.1</ele>
        <time>2021-11-12T19:16:25+01:00</time>
      </trkpt>
      <trkpt lat="49.04785" lon="1.94672">
        <ele>44.2</ele>
        <time>2021-11-12T19:16:30+01:00</time>
      </trkpt>
      <trkpt lat="49.0477" lon="1.94227">
        <ele>54.2</ele>
        <time>2021-11-12T19:16:35+01:00</time>
      </trkpt>
      <trkpt lat="49.04604" lon="1.9433">
        <ele>50.2</ele>
        <time>2021-11-12T19:16:40+01:00</time>
      </trkpt>
      <trkpt lat="49.04483" lon="1.94331">
        <ele>50.1</ele>
        <time>2021-11-12T19:16:45+01:00</time>
      </trkpt>
      <trkpt lat="49.04406" lon="1.94303">
        <ele>47.8</ele>
        <time>2021-11-12T19:16:50+01:00</time>
      </trkpt>
      <trkpt lat="49.04368" lon="1.94294">
        <ele>46.2</ele>
        <time>2021-11-12T19:16:55+01:00</time>
      </trkpt>
      <trkpt lat="49.04335" lon="1.94273">
        <ele>46</ele>
        <time>2021-11-12T19:17:00+01:00</time>
      </trkpt>
      <trkpt lat="49.04233" lon="1.94281">
        <ele>47.5</ele>
        <time>2021-11-12T19:17:05+01:00</time>
      </trkpt>
      <trkpt lat="49.04176" lon="1.94305">
        <ele>46</ele>
        <time>2021-11-12T19:17:10+01:00</time>
      </trkpt>
      <trkpt lat="49.04142" lon="1.94277">
        <ele>46</ele>
        <time>2021-11-12T19:17:15+01:00</time>
      </trkpt>
      <trkpt lat="49.0411" lon="1.9424">
        <ele>46.3</ele>
        <time>2021-11-12T19:17:20+01:00</time>
      </trkpt>
      <trkpt lat="49.04056" lon="1.94141">
        <ele>49.9</ele>
        <time>2021-11-12T19:17:25+01:00</time>
      </trkpt>
      <trkpt lat="49.0407" lon="1.94088">
        <ele>53.9</ele>
        <time>2021-11-12T19:17:30+01:00</time>
      </trkpt>
      <trkpt lat="49.04119" lon="1.94126">
        <ele>55.5</ele>
        <time>2021-11-12T19:17:35+01:00</time>
      </trkpt>
      <trkpt lat="49.04128" lon="1.94153">
        <ele>54.3</ele>
        <time>2021-11-12T19:17:40+01:00</time>
      </trkpt>
      <trkpt lat="49.04143" lon="1.94149">
        <ele>54.6</ele>
        <time>2021-11-12T19:17:45+01:00</time>
      </trkpt>
      <trkpt lat="49.0417" lon="1.94099">
        <ele>57.3</ele>
        <time>2021-11-12T19:17:50+01:00</time>
      </trkpt>
      <trkpt lat="49.04192" lon="1.94097">
        <ele>56.6</ele>
        <time>2021-11-12T19:17:55+01:00</time>
      </trkpt>
      <trkpt lat="49.04205" lon="1.94041">
        <ele>56.4</ele>
        <time>2021-11-12T19:18:00+01:00</time>
      </trkpt>
      <trkpt lat="49.04208" lon="1.93982">
        <ele>57.4</ele>
        <time>2021-11-12T19:18:05+01:00</time>
      </trkpt>
      <trkpt lat="49.04174" lon="1.93936">
        <ele>64.6</ele>
        <time>2021-11-12T19:18:10+01:00</time>
      </trkpt>
      <trkpt lat="49.04158" lon="1.9389">
        <ele>68.6</ele>
        <time>2021-11-12T19:18:15+01:00</time>
      </trkpt>
      <trkpt lat="49.04152" lon="1.93842">
        <ele>71.5</ele>
        <time>2021-11-12T19:18:20+01:00</time>
      </trkpt>
      <trkpt lat="49.04131" lon="1.93736">
        <ele>79.7</ele>
        <time>2021-11-12T19:18:25+01:00</time>
      </trkpt>
      <trkpt lat="49.04138" lon="1.93644">
        <ele>84.8</ele>
        <time>2021-11-12T19:18:30+01:00</time>
      </trkpt>
      <trkpt lat="49.04106" lon="1.93602">
        <ele>86.1</ele>
        <time>2021-11-12T19:18:35+01:00</time>
      </trkpt>
      <trkpt lat="49.04007" lon="1.93441">
        <ele>91.1</ele>
        <time>2021-11-12T19:18:40+01:00</time>
      </trkpt>
      <trkpt lat="49.03944" lon="1.93329">
        <ele>94.1</ele>
        <time>2021-11-12T19:18:45+01:00</time>
      </trkpt>
      <trkpt lat="49.03921" lon="1.93269">
        <ele>95.9</ele>
        <time>2021-11-12T19:18:50+01:00</time>
      </trkpt>
      <trkpt lat="49.03874" lon="1.93133">
        <ele>97.6</ele>
        <time>2021-11-12T19:18:55+01:00</time>
      </trkpt>
      <trkpt lat="49.03833" lon="1.92905">
        <ele>101</ele>
        <time>2021-11-12T19:19:00+01:00</time>
      </trkpt>
      <trkpt lat="49.03818" lon="1.928">
        <ele>103</ele>
        <time>2021-11-12T19:19:05+01:00</time>
      </trkpt>
      <trkpt lat="49.03811" lon="1.92717">
        <ele>103.8</ele>
        <time>2021-11-12T19:19:10+01:00</time>
      </trkpt>
      <trkpt lat="49.03781" lon="1.92796">
        <ele>103</ele>
        <time>2021-11-12T19:19:15+01:00</time>
      </trkpt>
      <trkpt lat="49.03738" lon="1.92865">
        <ele>100.5</ele>
        <time>2021-11-12T19:19:20+01:00</time>
      </trkpt>
      <trkpt lat="49.03606" lon="1.93028">
        <ele>89.4</ele>
        <time>2021-11-12T19:19:25+01:00</time>
      </trkpt>
      <trkpt lat="49.03584" lon="1.93109">
        <ele>83.1</ele>
        <time>2021-11-12T19:19:30+01:00</time>
      </trkpt>
      <trkpt lat="49.0354" lon="1.93204">
        <ele>80</ele>
        <time>2021-11-12T19:19:35+01:00</time>
      </trkpt>
      <trkpt lat="49.03483" lon="1.93257">
        <ele>81.2</ele>
        <time>2021-11-12T19:19:40+01:00</time>
      </trkpt>
      <trkpt lat="49.03419" lon="1.93291">
        <ele>80.1</ele>
        <time>2021-11-12T19:19:45+01:00</time>
      </trkpt>
      <trkpt lat="49.03373" lon="1.93333">
        <ele>78.4</ele>
        <time>2021-11-12T19:19:50+01:00</time>
      </trkpt>
      <trkpt lat="49.03332" lon="1.93383">
        <ele>75.2</ele>
        <time>2021-11-12T19:19:55+01:00</time>
      </trkpt>
      <trkpt lat="49.03294" lon="1.93417">
        <ele>71.7</ele>
        <time>2021-11-12T19:20:00+01:00</time>
      </trkpt>
      <trkpt lat="49.03342" lon="1.93486">
        <ele>72.8</ele>
        <time>2021-11-12T19:20:05+01:00</time>
      </trkpt>
      <trkpt lat="49.03408" lon="1.9355">
        <ele>76.3</ele>
        <time>2021-11-12T19:20:10+01:00</time>
      </trkpt>
      <trkpt lat="49.0344" lon="1.93529">
        <ele>78.8</ele>
        <time>2021-11-12T19:20:15+01:00</time>
      </trkpt>
      <trkpt lat="49.03406" lon="1.93553">
        <ele>76</ele>
        <time>2021-11-12T19:20:20+01:00</time>
      </trkpt>
      <trkpt lat="49.03349" lon="1.93498">
        <ele>72.7</ele>
        <time>2021-11-12T19:20:25+01:00</time>
      </trkpt>
      <trkpt lat="49.03294" lon="1.93419">
        <ele>71.7</ele>
        <time>2021-11-12T19:20:30+01:00</time>
      </trkpt>
      <trkpt lat="49.03276" lon="1.93418">
        <ele>69.8</ele>
        <time>2021-11-12T19:20:35+01:00</time>
      </trkpt>
      <trkpt lat="49.0317" lon="1.9331">
        <ele>61</ele>
        <time>2021-11-12T19:20:40+01:00</time>
      </trkpt>
      <trkpt lat="49.03145" lon="1.93307">
        <ele>58.6</ele>
        <time>2021-11-12T19:20:45+01:00</time>
      </trkpt>
      <trkpt lat="49.03087" lon="1.93368">
        <ele>53.8</ele>
        <time>2021-11-12T19:20:50+01:00</time>
      </trkpt>
      <trkpt lat="49.03099" lon="1.93397">
        <ele>52.7</ele>
        <time>2021-11-12T19:20:55+01:00</time>
      </trkpt>
      <trkpt lat="49.03091" lon="1.93428">
        <ele>51.4</ele>
        <time>2021-11-12T19:21:00+01:00</time>
      </trkpt>
      <trkpt lat="49.03097" lon="1.93482">
        <ele>48.9</ele>
        <time>2021-11-12T19:21:05+01:00</time>
      </trkpt>
      <trkpt lat="49.03079" lon="1.93537">
        <ele>45.1</ele>
        <time>2021-11-12T19:21:10+01:00</time>
      </trkpt>
      <trkpt lat="49.03072" lon="1.93563">
        <ele>43.2</ele>
        <time>2021-11-12T19:21:15+01:00</time>
      </trkpt>
      <trkpt lat="49.03079" lon="1.93576">
        <ele>43</ele>
        <time>2021-11-12T19:21:20+01:00</time>
      </trkpt>
      <trkpt lat="49.03095" lon="1.93612">
        <ele>43.4</ele>
        <time>2021-11-12T19:21:25+01:00</time>
      </trkpt>
      <trkpt lat="49.03051" lon="1.93685">
        <ele>40.8</ele>
        <time>2021-11-12T19:21:30+01:00</time>
      </trkpt>
      <trkpt lat="49.02999" lon="1.93753">
        <ele>43.1</ele>
        <time>2021-11-12T19:21:35+01:00</time>
      </trkpt>
      <trkpt lat="49.02995" lon="1.93766">
        <ele>43.5</ele>
        <time>2021-11-12T19:21:40+01:00</time>
      </trkpt>
      <trkpt lat="49.02997" lon="1.9378">
        <ele>43.5</ele>
        <time>2021-11-12T19:21:45+01:00</time>
      </trkpt>
      <trkpt lat="49.02954" lon="1.93838">
        <ele>51.3</ele>
        <time>2021-11-12T19:21:50+01:00</time>
      </trkpt>
      <trkpt lat="49.02958" lon="1.93877">
        <ele>52.6</ele>
        <time>2021-11-12T19:21:55+01:00</time>
      </trkpt>
      <trkpt lat="49.02935" lon="1.94154">
        <ele>66.1</ele>
        <time>2021-11-12T19:22:00+01:00</time>
      </trkpt>
      <trkpt lat="49.02929" lon="1.94197">
        <ele>70.9</ele>
        <time>2021-11-12T19:22:05+01:00</time>
      </trkpt>
      <trkpt lat="49.02961" lon="1.94329">
        <ele>82.2</ele>
        <time>2021-11-12T19:22:10+01:00</time>
      </trkpt>
      <trkpt lat="49.02936" lon="1.94376">
        <ele>88.1</ele>
        <time>2021-11-12T19:22:15+01:00</time>
      </trkpt>
      <trkpt lat="49.0291" lon="1.94424">
        <ele>92.5</ele>
        <time>2021-11-12T19:22:20+01:00</time>
      </trkpt>
      <trkpt lat="49.02897" lon="1.94453">
        <ele>93.7</ele>
        <time>2021-11-12T19:22:25+01:00</time>
      </trkpt>
      <trkpt lat="49.02885" lon="1.94474">
        <ele>94.4</ele>
        <time>2021-11-12T19:22:30+01:00</time>
      </trkpt>
      <trkpt lat="49.02879" lon="1.94497">
        <ele>95.3</ele>
        <time>2021-11-12T19:22:35+01:00</time>
      </trkpt>
      <trkpt lat="49.02859" lon="1.94532">
        <ele>96.2</ele>
        <time>2021-11-12T19:22:40+01:00</time>
      </trkpt>
      <trkpt lat="49.02824" lon="1.94746">
        <ele>91.2</ele>
        <time>2021-11-12T19:22:45+01:00</time>
      </trkpt>
      <trkpt lat="49.02817" lon="1.94819">
        <ele>95.3</ele>
        <time>2021-11-12T19:22:50+01:00</time>
      </trkpt>
      <trkpt lat="49.02795" lon="1.94981">
        <ele>99.1</ele>
        <time>2021-11-12T19:22:55+01:00</time>
      </trkpt>
      <trkpt lat="49.02846" lon="1.95009">
        <ele>96.2</ele>
        <time>2021-11-12T19:23:00+01:00</time>
      </trkpt>
      <trkpt lat="49.02899" lon="1.95056">
        <ele>92.3</ele>
        <time>2021-11-12T19:23:05+01:00</time>
      </trkpt>
      <trkpt lat="49.02941" lon="1.95084">
        <ele>87.2</ele>
        <time>2021-11-12T19:23:10+01:00</time>
      </trkpt>
      <trkpt lat="49.03012" lon="1.95101">
        <ele>82.4</ele>
        <time>2021-11-12T19:23:15+01:00</time>
      </trkpt>
      <trkpt lat="49.03073" lon="1.95104">
        <ele>83.3</ele>
        <time>2021-11-12T19:23:20+01:00</time>
      </trkpt>
      <trkpt lat="49.03172" lon="1.95023">
        <ele>85.2</ele>
        <time>2021-11-12T19:23:25+01:00</time>
      </trkpt>
      <trkpt lat="49.03275" lon="1.94858">
        <ele>84.7</ele>
        <time>2021-11-12T19:23:30+01:00</time>
      </trkpt>
      <trkpt lat="49.03333" lon="1.94949">
        <ele>90</ele>
        <time>2021-11-12T19:23:35+01:00</time>
      </trkpt>
      <trkpt lat="49.03436" lon="1.95041">
        <ele>96</ele>
        <time>2021-11-12T19:23:40+01:00</time>
      </trkpt>
      <trkpt lat="49.03565" lon="1.95227">
        <ele>102.1</ele>
        <time>2021-11-12T19:23:45+01:00</time>
      </trkpt>
      <trkpt lat="49.03637" lon="1.95091">
        <ele>98.3</ele>
        <time>2021-11-12T19:23:50+01:00</time>
      </trkpt>
      <trkpt lat="49.03807" lon="1.9492">
        <ele>88.2</ele>
        <time>2021-11-12T19:23:55+01:00</time>
      </trkpt>
      <trkpt lat="49.03837" lon="1.94854">
        <ele>81.2</ele>
        <time>2021-11-12T19:24:00+01:00</time>
      </trkpt>
      <trkpt lat="49.03877" lon="1.94824">
        <ele>76.7</ele>
        <time>2021-11-12T19:24:05+01:00</time>
      </trkpt>
      <trkpt lat="49.03907" lon="1.94825">
        <ele>74</ele>
        <time>2021-11-12T19:24:10+01:00</time>
      </trkpt>
      <trkpt lat="49.03938" lon="1.94826">
        <ele>71.1</ele>
        <time>2021-11-12T19:24:15+01:00</time>
      </trkpt>
      <trkpt lat="49.03962" lon="1.94815">
        <ele>69</ele>
        <time>2021-11-12T19:24:20+01:00</time>
      </trkpt>
      <trkpt lat="49.03983" lon="1.94784">
        <ele>66.1</ele>
        <time>2021-11-12T19:24:25+01:00</time>
      </trkpt>
      <trkpt lat="49.0403" lon="1.94863">
        <ele>68.9</ele>
        <time>2021-11-12T19:24:30+01:00</time>
      </trkpt>
      <trkpt lat="49.04047" lon="1.94965">
        <ele>72.3</ele>
        <time>2021-11-12T19:24:35+01:00</time>
      </trkpt>
      <trkpt lat="49.0405" lon="1.9506">
        <ele>75.4</ele>
        <time>2021-11-12T19:24:40+01:00</time>
      </trkpt>
      <trkpt lat="49.0402" lon="1.95118">
        <ele>84.7</ele>
        <time>2021-11-12T19:24:45+01:00</time>
      </trkpt>
      <trkpt lat="49.04047" lon="1.95289">
        <ele>86</ele>
        <time>2021-11-12T19:24:50+01:00</time>
      </trkpt>
      <trkpt lat="49.0404" lon="1.95405">
        <ele>88.9</ele>
        <time>2021-11-12T19:24:55+01:00</time>
      </trkpt>
      <trkpt lat="49.0402" lon="1.95524">
        <ele>90.3</ele>
        <time>2021-11-12T19:25:00+01:00</time>
      </trkpt>
      <trkpt lat="49.04007" lon="1.95648">
        <ele>91.7</ele>
        <time>2021-11-12T19:25:05+01:00</time>
      </trkpt>
      <trkpt lat="49.0399" lon="1.95764">
        <ele>92.6</ele>
        <time>2021-11-12T19:25:10+01:00</time>
      </trkpt>
      <trkpt lat="49.03948" lon="1.95914">
        <ele>91.4</ele>
        <time>2021-11-12T19:25:15+01:00</time>
      </trkpt>
      <trkpt lat="49.03913" lon="1.96081">
        <ele>92.5</ele>
        <time>2021-11-12T19:25:20+01:00</time>
      </trkpt>
      <trkpt lat="49.03919" lon="1.96195">
        <ele>91.6</ele>
        <time>2021-11-12T19:25:25+01:00</time>
      </trkpt>
      <trkpt lat="49.03957" lon="1.96364">
        <ele>91.8</ele>
        <time>2021-11-12T19:25:30+01:00</time>
      </trkpt>
      <trkpt lat="49.03989" lon="1.96503">
        <ele>90</ele>
        <time>2021-11-12T19:25:35+01:00</time>
      </trkpt>
      <trkpt lat="49.04021" lon="1.96591">
        <ele>87.9</ele>
        <time>2021-11-12T19:25:40+01:00</time>
      </trkpt>
      <trkpt lat="49.04063" lon="1.96696">
        <ele>84.4</ele>
        <time>2021-11-12T19:25:45+01:00</time>
      </trkpt>
      <trkpt lat="49.04119" lon="1.96835">
        <ele>79.9</ele>
        <time>2021-11-12T19:25:50+01:00</time>
      </trkpt>
      <trkpt lat="49.04149" lon="1.96901">
        <ele>76.3</ele>
        <time>2021-11-12T19:25:55+01:00</time>
      </trkpt>
      <trkpt lat="49.04229" lon="1.96981">
        <ele>68.7</ele>
        <time>2021-11-12T19:26:00+01:00</time>
      </trkpt>
      <trkpt lat="49.04235" lon="1.96939">
        <ele>69.1</ele>
        <time>2021-11-12T19:26:05+01:00</time>
      </trkpt>
      <trkpt lat="49.04233" lon="1.96875">
        <ele>69.2</ele>
        <time>2021-11-12T19:26:10+01:00</time>
      </trkpt>
      <trkpt lat="49.04223" lon="1.96769">
        <ele>68.9</ele>
        <time>2021-11-12T19:26:15+01:00</time>
      </trkpt>
      <trkpt lat="49.04247" lon="1.96611">
        <ele>68</ele>
        <time>2021-11-12T19:26:20+01:00</time>
      </trkpt>
      <trkpt lat="49.04264" lon="1.96504">
        <ele>65.6</ele>
        <time>2021-11-12T19:26:25+01:00</time>
      </trkpt>
      <trkpt lat="49.04271" lon="1.96349">
        <ele>59.1</ele>
        <time>2021-11-12T19:26:30+01:00</time>
      </trkpt>
      <trkpt lat="49.04276" lon="1.96249">
        <ele>59</ele>
        <time>2021-11-12T19:26:35+01:00</time>
      </trkpt>
      <trkpt lat="49.04278" lon="1.9603">
        <ele>66.9</ele>
        <time>2021-11-12T19:26:40+01:00</time>
      </trkpt>
      <trkpt lat="49.04498" lon="1.955">
        <ele>62.1</ele>
        <time>2021-11-12T19:26:45+01:00</time>
      </trkpt>
      <trkpt lat="49.04392" lon="1.95432">
        <ele>62.9</ele>
        <time>2021-11-12T19:26:50+01:00</time>
      </trkpt>
      <trkpt lat="49.04295" lon="1.95291">
        <ele>55.3</ele>
        <time>2021-11-12T19:26:55+01:00</time>
      </trkpt>
      <trkpt lat="49.04236" lon="1.95147">
        <ele>53.8</ele>
        <time>2021-11-12T19:27:00+01:00</time>
      </trkpt>
      <trkpt lat="49.04204" lon="1.95038">
        <ele>52.3</ele>
        <time>2021-11-12T19:27:05+01:00</time>
      </trkpt>
      <trkpt lat="49.04226" lon="1.95077">
        <ele>52.4</ele>
        <time>2021-11-12T19:27:10+01:00</time>
      </trkpt>
      <trkpt lat="49.04236" lon="1.95072">
        <ele>51.7</ele>
        <time>2021-11-12T19:27:15+01:00</time>
      </trkpt>
      <trkpt lat="49.04297" lon="1.95088">
        <ele>49.7</ele>
        <time>2021-11-12T19:27:20+01:00</time>
      </trkpt>
      <trkpt lat="49.04338" lon="1.95075">
        <ele>48.6</ele>
        <time>2021-11-12T19:27:25+01:00</time>
      </trkpt>
      <trkpt lat="49.04492" lon="1.95099">
        <ele>51</ele>
        <time>2021-11-12T19:27:30+01:00</time>
      </trkpt>
      <trkpt lat="49.04599" lon="1.95147">
        <ele>50.6</ele>
        <time>2021-11-12T19:27:35+01:00</time>
      </trkpt>
      <trkpt lat="49.04634" lon="1.95193">
        <ele>50.4</ele>
        <time>2021-11-12T19:27:40+01:00</time>
      </trkpt>
      <trkpt lat="49.04676" lon="1.9512">
        <ele>46.9</ele>
        <time>2021-11-12T19:27:45+01:00</time>
      </trkpt>
      <trkpt lat="49.04729" lon="1.951">
        <ele>45.6</ele>
        <time>2021-11-12T19:27:50+01:00</time>
      </trkpt>
      <trkpt lat="49.04782" lon="1.95116">
        <ele>45.8</ele>
        <time>2021-11-12T19:27:55+01:00</time>
      </trkpt>
      <trkpt lat="49.04828" lon="1.95099">
        <ele>45.8</ele>
        <time>2021-11-12T19:28:00+01:00</time>
      </trkpt>
      <trkpt lat="49.04861" lon="1.95068">
        <ele>45.5</ele>
        <time>2021-11-12T19:28:05+01:00</time>
      </trkpt>
      <trkpt lat="49.04921" lon="1.94994">
        <ele>44.8</ele>
        <time>2021-11-12T19:28:10+01:00</time>
      </trkpt>
      <trkpt lat="49.04917" lon="1.95075">
        <ele>46.7</ele>
        <time>2021-11-12T19:28:15+01:00</time>
      </trkpt>
      <trkpt lat="49.0492" lon="1.95118">
        <ele>48.5</ele>
        <time>2021-11-12T19:28:20+01:00</time>
      </trkpt>
      <trkpt lat="49.04907" lon="1.95193">
        <ele>51.3</ele>
        <time>2021-11-12T19:28:25+01:00</time>
      </trkpt>
      <trkpt lat="49.04912" lon="1.95244">
        <ele>52.8</ele>
        <time>2021-11-12T19:28:30+01:00</time>
      </trkpt>
      <trkpt lat="49.04955" lon="1.95227">
        <ele>51.8</ele>
        <time>2021-11-12T19:28:35+01:00</time>
      </trkpt>
    </trkseg>
  </trk>
</gpx>